Terminal Aerodrome Forecast
Issued by NWS

Home | Current Version | Previous Version | Text Only | Print | Product List | Glossary On
Versions: 1 2 3 4 5 6 7 8 9 10 11 12 13 14 15 16 17 18 19 20 21 22 23 24 25 26 27 28 29 30 31 32 33 34 35 36 37 38 39
000
FTUS45 KBOI 282324
TAFMYL
TAF
KMYL 282324Z 2900/2924 VRB03KT P6SM VCSH OVC030
      TEMPO 2900/2904 5SM -SN OVC020
     FM290400 VRB03KT 4SM BR VCSH SCT015 OVC025
     FM290900 00000KT 1SM BR VCSH OVC009
     FM292000 34006KT 5SM BR VCSH SCT025 BKN070=

USA.gov is the U.S. government's official web portal to all federal, state and local government web resources and services.